Airfield :
LOGIN :

Register | Disclaimer

   EN    FR    IT 

 










Legend :    VFR   Marginal VFR   IFR   Intensive IFR   Very Intensive IFR
Visi :
Ceiling :
>= 8 km
>= 3000ft
5 to 8 km
1000 to 3000 ft
1500m to 5 km
500 to 1000 ft
800 to 1500m
200 to 500 ft
< 800m
< 200 ft
Symbols :   Thunderstorms  Fog  Heavy snow  Heavy precipitations  Wind > 20 kt
SIGMETs :     Misc.  Thunderstorms  Icing  Turbulence  Mountain Waves  Volcanic Ashes






- Airport Elevation : 443 ft
- IATA code : SQQ


EYSA - Siauliai

CURRENT METAR :
  • 142120Z 36004KT 1300 R14L/P2000N BR NSC 04/04 Q1020 R14L/29//95 R14R/29//95 AMB TEMPO 4500 GRN

EXPIRED METARs :
  • 142050Z 35004KT 0900 R14L/1100U FG NSC 03/03 Q1020 R14L/29//95 R14R/29//95 AMB TEMPO 0700 RED
  • 142020Z 36002KT 0700 R14L/1000U FG SCT001 02/02 Q1019 R14L/29//95 R14R/29//95 RED TEMPO 0900 AMB
  • 141950Z 30002KT 0600 R14L/0800N FG SCT001 02/02 Q1019 R14L/29//95 R14R/29//95 RED TEMPO 0900 AMB
  • 141920Z 13002KT 0400 R14L/04500D FG FEW001 02/01 Q1019 R14L/29//95 R14R/29//95 RED TEMPO 0900 AMB
  • 141850Z 25002KT 0500 R14L/0550D FG NSC 02/02 Q1019 R14L/29//95 R14R/29//95 RED TEMPO 0900 AMB

TAF TAF EYSA
Valid from the 14 at 21:00 until the 15 at 06:00 UTC


142024Z 1421/1506 VRB05KT 1500 BR BKN002
TEMPO 1421/1504 0500 FG



MET'MAP, your aeronautical weather chart ! - Copyright ORBIFLY December 2007 - Disclaimer

ORBIFLY MET'MAP TEAM :

Programming & Development : Alexandra Zaïnal
Concept & Development : Baudouin d'Aumeries
Co-Development & Prog : Marc-Olivier Méhu
Technical & hardware support : Manuel Goepfert

Contact : metmap@orbifly.com




SOURCES & CREDITS :

   NOAA